Aviosuperficie Sassuolo

IT-0200 · Regione Emilia-Romagna, Italia

Storia di METAR IT-0200 · Aviosuperficie Sassuolo

Di seguito sono riportati i METAR degli ultimi giorni. Seleziona un anno per sfogliare i METAR più vecchi, dall'anno 2007 in poi.

2 marzo 2024

Tempo Codice Tempo meteorologico Temp. Vista Base nuvolosa Vento METAR/SPECI
23:50
V
9 °C 10 km+ - 150° 150° 5 kt METAR LIPE 022250Z AUTO 15005KT 9999 FEW066/// 09/06 Q1009
23:20
V
10 °C 10 km+ - 180° 180° 5 kt METAR LIPE 022220Z AUTO 18005KT 9999 NCD 10/06 Q1009
22:50
V
10 °C 10 km+ - 160° 160° 6 kt METAR LIPE 022150Z 16006KT CAVOK 10/06 Q1009
22:20
V
9 °C 10 km+ - 180° 180° 3 kt METAR LIPE 022120Z 18003KT 150V210 CAVOK 09/06 Q1009
21:50
V
10 °C 10 km+ - Var Var 2 kt METAR LIPE 022050Z VRB02KT CAVOK 10/08 Q1010
21:20
V
10 °C 10 km+ - 150° 150° 4 kt METAR LIPE 022020Z 15004KT CAVOK 10/08 Q1009
20:50
V
10 °C 10 km+ - 130° 130° 6 kt METAR LIPE 021950Z 13006KT CAVOK 10/09 Q1009
20:20
V
10 °C 10 km+ - 100° 100° 4 kt METAR LIPE 021920Z 10004KT 070V130 CAVOK 10/09 Q1010
19:50
V
9 °C 10 km+ - 110° 110° 5 kt METAR LIPE 021850Z 11005KT CAVOK 09/09 Q1009
19:20
V
11 °C 10 km+ - 080° 080° 4 kt METAR LIPE 021820Z 08004KT CAVOK 11/10 Q1009
18:50
V
11 °C 10 km+ - 040° 040° 3 kt METAR LIPE 021750Z 04003KT 9999 FEW070 11/10 Q1009
18:20
V
11 °C 10 km+ - 110° 110° 3 kt METAR LIPE 021720Z 11003KT 9999 FEW070 11/10 Q1009
17:50
V
12 °C 10 km+ - 110° 110° 5 kt METAR LIPE 021650Z 11005KT 9999 FEW070 12/09 Q1009
17:20
V
14 °C 10 km+ - 090° 090° 4 kt METAR LIPE 021620Z 09004KT 050V120 9999 FEW060 14/10 Q1009
16:50
V
14 °C 10 km+ - 080° 080° 3 kt METAR LIPE 021550Z 08003KT 050V110 9999 SCT016 14/10 Q1009
16:20
V
14 °C 10 km+ - 030° 030° 6 kt METAR LIPE 021520Z 03006KT 360V060 9999 SCT016 SCT035 14/10 Q1008
15:50
M
14 °C 10 km+ 1.600 ft 040° 040° 5 kt METAR LIPE 021450Z 04005KT 360V080 9999 BKN016 14/11 Q1008
15:20
M
14 °C 10 km+ 2.000 ft 080° 080° 4 kt METAR LIPE 021420Z 08004KT 030V130 9999 BKN020 14/10 Q1008
14:50
V
14 °C 10 km+ - 080° 080° 5 kt METAR LIPE 021350Z 08005KT 9999 FEW010 SCT060 14/10 Q1008
14:20
V
13 °C 10 km+ 5.000 ft 060° 060° 5 kt METAR LIPE 021320Z 06005KT 030V090 9999 -RA FEW010 BKN050 13/11 Q1008
13:50
V
13 °C 10 km+ - 090° 090° 5 kt METAR LIPE 021250Z 09005KT 050V130 9999 FEW010 SCT055 13/11 Q1008
13:20
V
13 °C 10 km+ - 080° 080° 6 kt METAR LIPE 021220Z 08006KT 9999 FEW010 SCT060 13/10 Q1009
12:50
V
13 °C 10 km+ - 080° 080° 4 kt METAR LIPE 021150Z 08004KT 050V110 9999 SCT010 SCT050 13/11 Q1009
12:20
V
12 °C 10 km+ 6.500 ft 090° 090° 4 kt METAR LIPE 021120Z 09004KT 9999 FEW005 BKN065 12/11 Q1009
11:50
V
13 °C 10 km+ 5.500 ft 080° 080° 4 kt METAR LIPE 021050Z 08004KT 040V120 9999 SCT010 BKN055 13/11 Q1009
11:20
V
12 °C 8 km 5.000 ft 080° 080° 5 kt METAR LIPE 021020Z 08005KT 8000 -DZ FEW005 BKN050 12/11 Q1009
10:50
V
11 °C 8 km 5.000 ft 050° 050° 5 kt METAR LIPE 020950Z 05005KT 8000 -RA SCT005 BKN050 11/11 Q1009
10:20
V
11 °C 8 km 5.000 ft 060° 060° 4 kt METAR LIPE 020920Z 06004KT 020V080 8000 -RA FEW006 BKN050 11/11 Q1009 RERA
09:50
V
11 °C 8 km 4.500 ft 060° 060° 4 kt METAR LIPE 020850Z 06004KT 8000 RA FEW006 BKN045 11/10 Q1009
09:20
V
11 °C 8 km 4.000 ft 050° 050° 3 kt METAR LIPE 020820Z 05003KT 020V080 8000 RA FEW025 BKN040 11/10 Q1009
08:50
V
11 °C 8 km - 070° 070° 2 kt METAR LIPE 020750Z 07002KT 8000 FEW040 SCT060 11/10 Q1008
08:20
V
11 °C 8 km 4.000 ft Var Var 2 kt METAR LIPE 020720Z VRB02KT 8000 BKN040 11/10 Q1008
07:50
V
10 °C 8 km 4.000 ft 070° 070° 3 kt METAR LIPE 020650Z 07003KT 8000 BKN040 10/10 Q1008
07:20
M
10 °C 6 km 4.500 ft 080° 080° 3 kt METAR LIPE 020620Z 08003KT 6000 -RA BKN045 BKN074 10/10 Q1007
06:50
M
10 °C 5 km 4.300 ft 080° 080° 3 kt METAR LIPE 020550Z AUTO 08003KT 5000 -RA OVC043/// 10/10 Q1007 REDZ
06:20
M
10 °C 6 km 4.300 ft 080° 080° 3 kt METAR LIPE 020520Z AUTO 08003KT 6000 -RA OVC043/// 10/10 Q1007 REDZ
05:50
M
10 °C 6 km 4.400 ft 100° 100° 2 kt METAR LIPE 020450Z AUTO 10002KT 6000 DZ OVC044/// 10/10 Q1007
05:20
M
10 °C 7 km 4.200 ft 090° 090° 2 kt METAR LIPE 020420Z AUTO 09002KT 7000 DZ OVC042/// 10/10 Q1007 REUP
04:50
M
10 °C 7 km 4.200 ft 070° 070° 3 kt METAR LIPE 020350Z AUTO 07003KT 040V100 7000 OVC042/// 10/10 Q1006 REDZ
04:20
M
10 °C 7 km 4.300 ft 110° 110° 4 kt METAR LIPE 020320Z AUTO 11004KT 7000 DZ OVC043/// 10/10 Q1006
03:50
V
10 °C 8 km 4.300 ft 090° 090° 4 kt METAR LIPE 020250Z AUTO 09004KT 8000 -DZ BKN043/// OVC058/// 10/10 Q1006 REDZ
03:20
M
10 °C 7 km 4.000 ft 100° 100° 4 kt METAR LIPE 020220Z AUTO 10004KT 7000 -RA OVC040/// 10/10 Q1006
02:50
V
11 °C 9 km 4.000 ft 070° 070° 4 kt METAR LIPE 020150Z AUTO 07004KT 9000 OVC040/// 11/10 Q1006
02:20
V
11 °C 9 km 4.900 ft 080° 080° 4 kt METAR LIPE 020120Z AUTO 08004KT 9000 -RA OVC049/// 11/10 Q1006
01:50
V
11 °C 9 km 4.500 ft 060° 060° 4 kt METAR LIPE 020050Z AUTO 06004KT 9000 -RA OVC045/// 11/10 Q1006
01:20
V
11 °C 9 km 4.400 ft 060° 060° 4 kt METAR LIPE 020020Z AUTO 06004KT 9000 -RA OVC044/// 11/10 Q1006
00:50
V
11 °C 9 km 4.400 ft 080° 080° 4 kt METAR LIPE 012350Z AUTO 08004KT 9000 OVC044/// 11/10 Q1006
00:20
V
11 °C 10 km+ 4.500 ft 080° 080° 4 kt METAR LIPE 012320Z AUTO 08004KT 9999 OVC045/// 11/10 Q1006 REDZ

1 marzo 2024

Tempo Codice Tempo meteorologico Temp. Vista Base nuvolosa Vento METAR/SPECI
22:50
V
11 °C 10 km+ 5.500 ft 090° 090° 4 kt METAR LIPE 012150Z 09004KT 9999 BKN055 11/10 Q1006
22:20
V
11 °C 10 km+ 5.000 ft 090° 090° 5 kt METAR LIPE 012120Z 09005KT 9999 BKN050 11/10 Q1006
21:50
V
11 °C 10 km+ 5.000 ft 100° 100° 5 kt METAR LIPE 012050Z 10005KT 9999 BKN050 11/10 Q1005
21:20
V
12 °C 10 km+ - 100° 100° 6 kt METAR LIPE 012020Z 10006KT 9999 SCT040 SCT050 12/10 Q1005
20:50
V
11 °C 10 km+ 5.000 ft 110° 110° 5 kt METAR LIPE 011950Z 11005KT 9999 BKN050 11/10 Q1005
20:20
V
11 °C 10 km+ 5.000 ft 090° 090° 4 kt METAR LIPE 011920Z 09004KT 9999 BKN050 11/10 Q1005
19:50
V
11 °C 10 km+ - 070° 070° 5 kt METAR LIPE 011850Z 07005KT 9999 SCT040 SCT070 11/10 Q1005
19:20
V
12 °C 10 km+ 7.000 ft 070° 070° 5 kt METAR LIPE 011820Z 07005KT 9999 SCT040 BKN070 12/11 Q1005
18:50
M
12 °C 10 km+ 2.000 ft 080° 080° 5 kt METAR LIPE 011750Z 08005KT 9999 BKN020 BKN050 12/10 Q1004
18:20
M
12 °C 10 km+ 2.000 ft 080° 080° 3 kt METAR LIPE 011720Z 08003KT 050V110 9999 BKN020 BKN070 12/11 Q1004
17:50
M
13 °C 10 km+ 1.400 ft 100° 100° 7 kt METAR LIPE 011650Z 10007KT 9999 -RA BKN014 BKN025 13/11 Q1004
17:20
V
13 °C 10 km+ 4.000 ft 060° 060° 7 kt METAR LIPE 011620Z 06007KT 9999 SCT012 BKN040 13/11 Q1004
16:50
V
13 °C 10 km+ 5.000 ft 070° 070° 6 kt METAR LIPE 011550Z 07006KT 9999 SCT015 BKN050 13/11 Q1003
16:20
V
14 °C 10 km+ 4.500 ft 070° 070° 7 kt METAR LIPE 011520Z 07007KT 9999 SCT025 BKN045 14/11 Q1003
15:50
M
14 °C 10 km+ 2.000 ft 070° 070° 6 kt METAR LIPE 011450Z 07006KT 9999 BKN020 BKN050 14/11 Q1003
15:20
M
14 °C 10 km+ 1.500 ft 090° 090° 3 kt METAR LIPE 011420Z 09003KT 9999 BKN015 BKN035 14/11 Q1003
14:50
V
14 °C 10 km+ 5.000 ft 090° 090° 5 kt METAR LIPE 011350Z 09005KT 9999 FEW015 BKN050 14/12 Q1003
14:20
V
14 °C 9 km 4.500 ft 080° 080° 8 kt METAR LIPE 011320Z 08008KT 9000 SCT015 BKN045 14/12 Q1003
13:50
M
14 °C 8 km 1.500 ft 070° 070° 7 kt METAR LIPE 011250Z 07007KT 040V100 8000 BKN015 BKN050 14/11 Q1003
13:20
M
14 °C 7 km 1.100 ft 040° 040° 6 kt METAR LIPE 011220Z 04006KT 360V060 7000 BKN011 BKN014 14/13 Q1003
12:50
M
13 °C 7 km 1.500 ft 080° 080° 4 kt METAR LIPE 011150Z 08004KT 030V120 7000 BKN015 BKN030 13/12 Q1004
12:20
I
12 °C 4 km 800 ft 040° 040° 4 kt METAR LIPE 011120Z 04004KT 360V080 4000 BR BKN008 BKN015 12/12 Q1004
11:50
I
12 °C 3 km 700 ft 060° 060° 6 kt METAR LIPE 011050Z 06006KT 020V080 3000 BR BKN007 BKN011 12/11 Q1004
11:20
I
12 °C 1,8 km 600 ft 050° 050° 6 kt METAR LIPE 011020Z 05006KT 020V080 1800 -RA BR BKN006 BKN008 12/11 Q1004
10:50
I
12 °C 3 km 600 ft 040° 040° 7 kt METAR LIPE 010950Z 04007KT 3000 -RA BR BKN006 BKN009 12/11 Q1004
10:20
I
12 °C 2 km 600 ft 040° 040° 7 kt METAR LIPE 010920Z 04007KT 2000 -RA BR BKN006 BKN010 12/11 Q1004
09:50
I
12 °C 3 km 600 ft 040° 040° 7 kt METAR LIPE 010850Z 04007KT 3000 -RA BR BKN006 BKN008 12/11 Q1005
09:20
I
12 °C 2,5 km 500 ft 040° 040° 6 kt METAR LIPE 010820Z 04006KT 2500 -RA BR BKN005 BKN008 12/11 Q1005
08:50
I
12 °C 2,5 km 500 ft 050° 050° 7 kt METAR LIPE 010750Z 05007KT 030V090 2500 -RA BR BKN005 BKN010 12/11 Q1005
08:20
L
11 °C 2 km 300 ft 060° 060° 7 kt METAR LIPE 010720Z 06007KT 030V090 2000 -RA BR BKN003 BKN004 11/11 Q1005 RERA
07:50
L
12 °C 1,5 km 300 ft 060° 060° 5 kt METAR LIPE 010650Z 06005KT 030V100 1500 RA BR BKN003 BKN005 12/11 Q1004
07:20
L
12 °C 2 km 300 ft 060° 060° 6 kt METAR LIPE 010620Z 06006KT 030V100 2000 RA BR BKN003 BKN006 12/11 Q1004
06:50
L
12 °C 5 km 400 ft 070° 070° 6 kt METAR LIPE 010550Z AUTO 07006KT 040V110 5000 // OVC004/// 12/11 Q1004
06:20
L
12 °C 4,9 km 400 ft 070° 070° 6 kt METAR LIPE 010520Z AUTO 07006KT 4900 // BKN004/// 12/12 Q1004 REDZ
05:50
L
12 °C 4,4 km 300 ft 080° 080° 6 kt METAR LIPE 010450Z AUTO 08006KT 050V110 4400 // BKN003/// 12/12 Q1004
05:20
L
11 °C 1,1 km 300 ft Var Var 2 kt METAR LIPE 010420Z AUTO VRB02KT 1100 1000N R12/P2000N R30/P2000N // BKN003/// 11/11 Q1004 REDZ
04:50
L
11 °C 2 km 300 ft 220° 220° 2 kt METAR LIPE 010350Z AUTO 22002KT 2000 // OVC003/// 11/11 Q1004 REDZ
04:20
L
11 °C 2,3 km 300 ft Var Var 1 kt METAR LIPE 010320Z AUTO VRB01KT 2300 // BKN003/// 11/11 Q1004 REDZ
03:50
L
11 °C 3 km 300 ft Var Var 1 kt METAR LIPE 010250Z AUTO VRB01KT 3000 -RA BR OVC003/// 11/11 Q1005 REDZ
03:20
L
11 °C 2,6 km 400 ft Var Var 2 kt METAR LIPE 010220Z AUTO VRB02KT 2600 -RA BR OVC004/// 11/11 Q1005 RERA
02:50
I
11 °C 3,1 km 600 ft 360° 360° 3 kt METAR LIPE 010150Z AUTO 36003KT 3100 RA OVC006/// 11/11 Q1005 REDZ
02:20
I
11 °C 3,1 km 1.500 ft Var Var 2 kt METAR LIPE 010120Z AUTO VRB02KT 3100 DZ BR BKN015/// 11/11 Q1006
01:50
I
11 °C 3,5 km 2.100 ft Var Var 2 kt METAR LIPE 010050Z AUTO VRB02KT 3500 +DZ BKN021/// 11/11 Q1006 RERA
01:20
I
11 °C 2,4 km 2.600 ft 310° 310° 3 kt METAR LIPE 010020Z AUTO 31003KT 280V350 2400 RA BKN026/// 11/11 Q1006 REDZ
00:50
I
11 °C 2,4 km 3.500 ft 290° 290° 3 kt METAR LIPE 292350Z AUTO 29003KT 2400 -RA BR FEW013/// BKN035/// 11/11 Q1007 RERA REDZ
00:20
I
11 °C 1,8 km 2.000 ft 310° 310° 4 kt METAR LIPE 292320Z AUTO 31004KT 1800 RA BR FEW003/// BKN020/// 11/11 Q1007

29 febbraio 2024

Tempo Codice Tempo meteorologico Temp. Vista Base nuvolosa Vento METAR/SPECI
23:50
I
11 °C 2,9 km 3.300 ft 280° 280° 6 kt METAR LIPE 292250Z AUTO 28006KT 250V320 2900 -RA BR SCT003/// SCT014/// BKN033/// 11/11 Q1007 REDZ
23:20
L
11 °C 2,4 km 300 ft 280° 280° 6 kt METAR LIPE 292220Z AUTO 28006KT 230V300 2400 DZ BR BKN003/// BKN024/// 11/11 Q1008
22:50
L
11 °C 2 km 300 ft 280° 280° 6 kt METAR LIPE 292150Z 28006KT 2000 DZ BR BKN003 BKN007 11/11 Q1008
22:20
L
11 °C 2,5 km 300 ft 260° 260° 6 kt METAR LIPE 292120Z 26006KT 2500 -DZ BR BKN003 BKN007 11/11 Q1009
21:50
I
11 °C 4 km 4.000 ft 250° 250° 6 kt METAR LIPE 292050Z 25006KT 4000 DZ BR SCT004 BKN040 11/11 Q1009
21:20
M
11 °C 6 km 4.000 ft 240° 240° 7 kt METAR LIPE 292020Z 24007KT 6000 BKN040 11/11 Q1009
20:50
M
12 °C 6 km 5.000 ft 250° 250° 5 kt METAR LIPE 291950Z 25005KT 210V360 6000 BKN050 12/11 Q1009
20:20
M
12 °C 7 km 4.500 ft 290° 290° 5 kt METAR LIPE 291920Z 29005KT 250V310 7000 BKN045 12/11 Q1009
19:50
M
12 °C 6 km 4.000 ft 290° 290° 3 kt METAR LIPE 291850Z 29003KT 270V330 6000 BKN040 12/11 Q1010
18:50
M
12 °C 5 km 3.000 ft 260° 260° 4 kt METAR LIPE 291750Z 26004KT 5000 -RA BR FEW008 BKN030 12/11 Q1010
18:20
I
12 °C 4 km 3.500 ft Var Var 2 kt METAR LIPE 291720Z VRB02KT 4000 DZ BR SCT008 BKN035 12/12 Q1010
17:50
M
12 °C 5 km 3.500 ft 270° 270° 5 kt METAR LIPE 291650Z 27005KT 5000 DZ BR SCT008 BKN035 12/11 Q1011
17:20
M
12 °C 6 km 5.000 ft 270° 270° 6 kt METAR LIPE 291620Z 27006KT 6000 SCT007 BKN050 12/12 Q1011
16:50
M
12 °C 7 km 4.000 ft 280° 280° 5 kt METAR LIPE 291550Z 28005KT 7000 SCT010 BKN040 12/12 Q1011
16:20
M
13 °C 6 km 5.000 ft 270° 270° 5 kt METAR LIPE 291520Z 27005KT 6000 SCT007 BKN050 13/12 Q1011
15:50
M
13 °C 6 km 4.000 ft 250° 250° 5 kt METAR LIPE 291450Z 25005KT 6000 SCT008 BKN040 13/12 Q1012
15:20
M
13 °C 6 km 1.200 ft 230° 230° 4 kt METAR LIPE 291420Z 23004KT 200V260 6000 SCT005 BKN012 13/12 Q1012
14:50
I
13 °C 6 km 800 ft 240° 240° 4 kt METAR LIPE 291350Z 24004KT 6000 BKN008 SCT015 13/12 Q1012
14:20
I
12 °C 5 km 700 ft 230° 230° 3 kt METAR LIPE 291320Z 23003KT 5000 BR BKN007 BKN050 12/12 Q1013
13:50
I
12 °C 5 km 600 ft 210° 210° 3 kt METAR LIPE 291250Z 21003KT 5000 BR BKN006 BKN015 12/12 Q1013
13:20
M
13 °C 5 km 1.000 ft Var Var 2 kt METAR LIPE 291220Z VRB02KT 5000 BR SCT005 BKN010 13/12 Q1013
12:50
I
12 °C 4 km 600 ft 290° 290° 3 kt METAR LIPE 291150Z 29003KT 260V350 4000 BR BKN006 BKN030 12/11 Q1014
12:20
I
12 °C 4 km 1.000 ft 270° 270° 4 kt METAR LIPE 291120Z 27004KT 4000 -RA BR BKN010 BKN016 12/11 Q1014
11:50
I
11 °C 3 km 800 ft 250° 250° 4 kt METAR LIPE 291050Z 25004KT 3000 -RA BR BKN008 BKN014 11/11 Q1015
11:20
I
12 °C 4 km 700 ft 250° 250° 4 kt METAR LIPE 291020Z 25004KT 4000 BR OVC007 12/11 Q1015
10:50
I
11 °C 4 km 700 ft 270° 270° 5 kt METAR LIPE 290950Z 27005KT 4000 -RA BR BKN007 BKN014 11/11 Q1014
10:20
I
11 °C 3 km 700 ft 270° 270° 4 kt METAR LIPE 290920Z 27004KT 3000 -RA BR BKN007 BKN011 11/10 Q1015
09:50
I
11 °C 3 km 900 ft 290° 290° 4 kt METAR LIPE 290850Z 29004KT 3000 -RA BR BKN009 BKN018 11/10 Q1015
09:20
I
11 °C 2 km 2.500 ft 270° 270° 5 kt METAR LIPE 290820Z 27005KT 2000 -RA BR SCT008 BKN025 11/10 Q1015
08:50
I
10 °C 2 km 1.300 ft 260° 260° 4 kt METAR LIPE 290750Z 26004KT 2000 -RA BR BKN013 BKN050 10/10 Q1015
08:20
I
10 °C 2 km 1.500 ft 260° 260° 3 kt METAR LIPE 290720Z 26003KT 2000 -RA BR BKN015 BKN060 10/10 Q1015
07:50
I
10 °C 2 km 2.000 ft 270° 270° 3 kt METAR LIPE 290650Z 27003KT 2000 -RA BR BKN020 BKN030 10/10 Q1015
07:20
I
10 °C 2 km 1.800 ft 280° 280° 3 kt METAR LIPE 290620Z 28003KT 2000 -RA BR BKN018 BKN030 10/10 Q1015 RERA
06:50
M
10 °C 5 km 5.000 ft 270° 270° 3 kt METAR LIPE 290550Z 27003KT 5000 RA BR SCT020 BKN050 10/10 Q1015